createdAt,value
2022-10-17T00:00:02.522Z,1.80
2022-10-17T00:02:36.509Z,2.00
2022-10-17T00:05:08.634Z,2.20
2022-10-17T00:07:39.958Z,2.70
2022-10-17T00:10:11.692Z,2.00
2022-10-17T00:12:43.346Z,1.70
2022-10-17T00:15:19.392Z,2.20
2022-10-17T00:17:50.964Z,1.80
2022-10-17T00:20:22.448Z,2.70
2022-10-17T00:22:53.781Z,2.50
2022-10-17T00:25:25.373Z,2.10
2022-10-17T00:27:56.767Z,2.50
2022-10-17T00:30:28.130Z,1.90
2022-10-17T00:32:59.580Z,1.80
2022-10-17T00:35:30.943Z,1.80
2022-10-17T00:38:02.306Z,2.80
2022-10-17T00:40:33.611Z,1.90
2022-10-17T00:43:05.017Z,2.00
2022-10-17T00:45:36.424Z,1.90
2022-10-17T00:48:11.112Z,2.30
2022-10-17T00:50:45.902Z,2.00
2022-10-17T00:53:18.193Z,2.30
2022-10-17T00:55:52.883Z,1.80
2022-10-17T00:58:24.714Z,1.80
2022-10-17T01:00:56.159Z,2.00
2022-10-17T01:03:27.749Z,2.10
2022-10-17T01:05:59.841Z,2.10
2022-10-17T01:08:31.366Z,1.90
2022-10-17T01:11:13.254Z,2.10
2022-10-17T01:13:50.994Z,2.00
2022-10-17T01:16:33.766Z,2.20
2022-10-17T01:19:30.720Z,2.00
2022-10-17T01:22:08.842Z,2.20
2022-10-17T01:24:57.565Z,1.70
2022-10-17T01:28:01.494Z,2.20
2022-10-17T01:31:05.804Z,1.90
2022-10-17T01:33:46.972Z,1.80
2022-10-17T01:36:30.338Z,1.70
2022-10-17T01:39:12.204Z,1.90
2022-10-17T01:41:48.232Z,2.20
2022-10-17T01:44:24.805Z,2.10
2022-10-17T01:47:02.805Z,1.90
2022-10-17T01:49:37.254Z,1.90
2022-10-17T01:52:13.952Z,1.50
2022-10-17T01:54:49.579Z,1.60
2022-10-17T01:57:27.435Z,2.00
2022-10-17T01:59:59.864Z,2.30
2022-10-17T02:02:32.553Z,2.10
2022-10-17T02:05:05.492Z,2.10
2022-10-17T02:07:36.718Z,2.10
2022-10-17T02:10:18.153Z,2.00
2022-10-17T02:12:56.323Z,2.30
2022-10-17T02:15:56.561Z,2.10
2022-10-17T02:18:42.950Z,1.90
2022-10-17T02:21:21.442Z,1.80
2022-10-17T02:23:57.442Z,2.00
2022-10-17T02:26:35.210Z,2.10
2022-10-17T02:29:11.405Z,2.50
2022-10-17T02:31:47.335Z,2.30
2022-10-17T02:34:23.116Z,2.30
2022-10-17T02:36:57.736Z,2.20
2022-10-17T02:39:32.157Z,2.40
2022-10-17T02:42:08.746Z,2.00
2022-10-17T02:44:44.939Z,2.10
2022-10-17T02:47:23.515Z,2.40
2022-10-17T02:49:57.263Z,2.10
2022-10-17T02:52:33.541Z,2.60
2022-10-17T02:55:12.398Z,2.70
2022-10-17T02:57:47.617Z,1.90
2022-10-17T03:00:20.523Z,2.40
2022-10-17T03:02:54.091Z,2.10
2022-10-17T03:05:27.631Z,2.20
2022-10-17T03:07:59.793Z,2.50
2022-10-17T03:10:31.164Z,2.20
2022-10-17T03:13:02.380Z,2.10
2022-10-17T03:15:39.418Z,1.80
2022-10-17T03:18:11.184Z,2.40
2022-10-17T03:20:42.674Z,2.50
2022-10-17T03:23:14.183Z,2.20
2022-10-17T03:25:45.601Z,2.20
2022-10-17T03:28:18.414Z,1.80
2022-10-17T03:30:50.022Z,2.10
2022-10-17T03:33:21.398Z,2.60
2022-10-17T03:35:52.749Z,2.00
2022-10-17T03:38:24.147Z,2.00
2022-10-17T03:40:59.536Z,2.30
2022-10-17T03:43:31.731Z,2.00
2022-10-17T03:46:03.927Z,2.10
2022-10-17T03:48:36.024Z,2.20
2022-10-17T03:51:10.454Z,2.30
2022-10-17T03:53:46.530Z,2.20
2022-10-17T03:56:20.035Z,2.10
2022-10-17T03:58:58.600Z,2.40
2022-10-17T04:01:31.387Z,1.90
2022-10-17T04:04:03.822Z,2.30
2022-10-17T04:06:37.457Z,2.40
2022-10-17T04:09:09.462Z,2.80
2022-10-17T04:11:46.706Z,2.10
2022-10-17T04:14:18.245Z,2.00
2022-10-17T04:16:50.345Z,2.00
2022-10-17T04:19:26.067Z,2.40
2022-10-17T04:21:57.426Z,1.70
2022-10-17T04:24:29.068Z,2.10
2022-10-17T04:27:10.285Z,1.70
2022-10-17T04:29:45.445Z,2.00
2022-10-17T04:32:27.245Z,2.20
2022-10-17T04:35:13.506Z,2.30
2022-10-17T04:37:48.998Z,2.00
2022-10-17T04:40:22.481Z,2.10
2022-10-17T04:42:55.422Z,2.00
2022-10-17T04:45:31.320Z,1.70
2022-10-17T04:48:06.931Z,2.20
2022-10-17T04:50:39.042Z,1.90
2022-10-17T04:53:34.158Z,1.80
2022-10-17T04:56:11.790Z,2.00
2022-10-17T04:58:44.008Z,2.40
2022-10-17T05:01:17.817Z,1.80
2022-10-17T05:03:51.865Z,1.80
2022-10-17T05:06:26.036Z,1.50
2022-10-17T05:09:12.028Z,1.80
2022-10-17T05:11:45.014Z,1.50
2022-10-17T05:14:18.505Z,1.80
2022-10-17T05:16:50.067Z,1.80
2022-10-17T05:19:21.532Z,1.60
2022-10-17T05:21:54.814Z,1.60
2022-10-17T05:24:26.292Z,1.50
2022-10-17T05:26:58.232Z,1.50
2022-10-17T05:29:29.833Z,1.40
2022-10-17T05:32:08.383Z,2.20
2022-10-17T05:34:40.002Z,1.70
2022-10-17T05:37:11.294Z,1.70
2022-10-17T05:39:43.954Z,1.30
2022-10-17T05:42:17.950Z,2.20
2022-10-17T05:44:50.871Z,1.30
2022-10-17T05:47:23.431Z,2.20
2022-10-17T05:49:54.681Z,1.60
2022-10-17T05:52:34.194Z,1.60
2022-10-17T05:55:12.330Z,2.00
2022-10-17T05:57:43.988Z,1.40
2022-10-17T06:00:18.840Z,1.50
2022-10-17T06:02:54.767Z,0.90
2022-10-17T06:05:27.667Z,1.10
2022-10-17T06:08:02.123Z,1.30
2022-10-17T06:10:36.981Z,1.30
2022-10-17T06:13:08.409Z,1.70
2022-10-17T06:15:40.111Z,1.30
2022-10-17T06:18:13.196Z,1.40
2022-10-17T06:20:46.148Z,1.20
2022-10-17T06:23:20.177Z,1.90
2022-10-17T06:26:03.598Z,1.60
2022-10-17T06:28:36.759Z,1.50
2022-10-17T06:31:13.036Z,1.40
2022-10-17T06:33:45.438Z,1.80
2022-10-17T06:36:17.877Z,1.70
2022-10-17T06:38:49.765Z,1.10
2022-10-17T06:41:26.637Z,1.20
2022-10-17T06:43:58.683Z,1.60
2022-10-17T06:47:02.591Z,1.60
2022-10-17T06:49:34.478Z,1.50
2022-10-17T06:52:23.467Z,1.40
2022-10-17T06:55:16.930Z,1.70
2022-10-17T06:58:10.333Z,1.30
2022-10-17T07:00:47.734Z,1.20
2022-10-17T07:03:18.989Z,1.00
2022-10-17T07:05:56.284Z,1.10
2022-10-17T07:08:28.077Z,1.90
2022-10-17T07:11:00.290Z,1.60
2022-10-17T07:13:34.427Z,1.40
2022-10-17T07:16:08.646Z,1.10
2022-10-17T07:18:40.970Z,1.60
2022-10-17T07:21:12.645Z,1.50
2022-10-17T07:23:44.813Z,1.30
2022-10-17T07:26:18.531Z,1.20
2022-10-17T07:28:55.285Z,1.40
2022-10-17T07:31:34.646Z,1.30
2022-10-17T07:34:06.238Z,0.90
2022-10-17T07:36:37.522Z,1.40
2022-10-17T07:39:10.224Z,1.00
2022-10-17T07:41:42.371Z,1.10
2022-10-17T07:44:15.501Z,1.10
2022-10-17T07:46:50.420Z,1.40
2022-10-17T07:49:22.620Z,1.20
2022-10-17T07:51:53.843Z,1.20
2022-10-17T07:54:25.743Z,1.30
2022-10-17T07:56:57.378Z,1.20
2022-10-17T07:59:28.583Z,1.10
2022-10-17T08:01:59.850Z,1.20
2022-10-17T08:04:31.483Z,1.30
2022-10-17T08:07:18.423Z,1.40
2022-10-17T08:09:52.393Z,1.30
2022-10-17T08:12:24.470Z,1.10
2022-10-17T08:14:55.924Z,1.00
2022-10-17T08:17:27.634Z,1.60
2022-10-17T08:19:58.943Z,1.50
2022-10-17T08:22:30.896Z,1.40
2022-10-17T08:25:03.141Z,1.00
2022-10-17T08:27:35.996Z,1.40
2022-10-17T08:30:08.593Z,1.20
2022-10-17T08:32:40.382Z,1.00
2022-10-17T08:35:12.560Z,1.40
2022-10-17T08:37:44.571Z,1.70
2022-10-17T08:40:22.666Z,1.40
2022-10-17T08:43:09.656Z,1.50
2022-10-17T08:45:47.523Z,1.50
2022-10-17T08:48:24.724Z,1.40
2022-10-17T08:50:58.207Z,1.30
2022-10-17T08:53:35.057Z,1.10
2022-10-17T08:56:19.838Z,1.30
2022-10-17T08:58:59.555Z,1.50
2022-10-17T09:01:38.868Z,1.30
2022-10-17T09:04:39.278Z,1.50
2022-10-17T09:07:18.321Z,0.90
2022-10-17T09:09:56.949Z,1.40
2022-10-17T09:12:38.950Z,1.20
2022-10-17T09:15:39.188Z,1.20
2022-10-17T09:20:51.875Z,1.00
2022-10-17T09:23:27.420Z,1.00
2022-10-17T09:26:12.349Z,1.40
2022-10-17T09:28:45.921Z,1.00
2022-10-17T09:31:22.008Z,1.10
2022-10-17T09:33:57.279Z,1.00
2022-10-17T09:36:34.196Z,1.00
2022-10-17T09:39:13.470Z,1.20
2022-10-17T09:41:49.661Z,1.70
2022-10-17T09:44:23.480Z,1.30
2022-10-17T09:47:14.290Z,1.30
2022-10-17T09:49:47.621Z,1.20
2022-10-17T09:52:22.794Z,1.30
2022-10-17T09:54:57.588Z,1.20
2022-10-17T09:57:28.981Z,1.10
2022-10-17T10:00:03.474Z,1.40
2022-10-17T10:02:44.775Z,1.30
2022-10-17T10:05:21.724Z,1.50
2022-10-17T10:08:06.685Z,1.40
2022-10-17T10:10:37.951Z,0.80
2022-10-17T10:13:20.357Z,1.30
2022-10-17T10:15:52.768Z,1.20
2022-10-17T10:18:36.627Z,1.20
2022-10-17T10:21:12.229Z,1.20
2022-10-17T10:23:45.334Z,1.30
2022-10-17T10:26:27.791Z,1.20
2022-10-17T10:29:02.334Z,1.40
2022-10-17T10:31:36.520Z,1.00
2022-10-17T10:34:20.546Z,1.40
2022-10-17T10:37:17.679Z,1.40
2022-10-17T10:39:51.999Z,1.30
2022-10-17T10:42:27.925Z,1.20
2022-10-17T10:45:04.068Z,1.30
2022-10-17T10:47:35.696Z,1.20
2022-10-17T10:50:29.159Z,1.20
2022-10-17T10:53:20.127Z,1.00
2022-10-17T10:55:55.663Z,1.20
2022-10-17T10:58:38.919Z,1.10
2022-10-17T11:01:21.775Z,1.00
2022-10-17T11:04:14.187Z,1.40
2022-10-17T11:06:48.978Z,1.20
2022-10-17T11:09:33.867Z,0.80
2022-10-17T11:12:12.328Z,1.10
2022-10-17T11:14:50.966Z,1.10
2022-10-17T11:17:34.048Z,1.30
2022-10-17T11:20:16.317Z,1.20
2022-10-17T11:22:50.796Z,1.40
2022-10-17T11:25:33.424Z,1.30
2022-10-17T11:28:06.253Z,1.60
2022-10-17T11:33:57.725Z,1.10
2022-10-17T11:36:29.805Z,1.10
2022-10-17T11:39:02.550Z,1.10
2022-10-17T11:41:38.848Z,1.10
2022-10-17T11:44:23.604Z,1.10
2022-10-17T11:46:57.066Z,0.90
2022-10-17T11:49:32.046Z,1.10
2022-10-17T11:52:37.428Z,1.30
2022-10-17T11:55:14.134Z,1.10
2022-10-17T11:57:55.635Z,1.10
2022-10-17T12:00:40.796Z,1.20
2022-10-17T12:03:29.853Z,1.00
2022-10-17T12:06:04.156Z,0.80
2022-10-17T12:08:39.602Z,1.00
2022-10-17T12:11:23.515Z,1.00
2022-10-17T12:13:55.720Z,1.10
2022-10-17T12:16:50.881Z,1.00
2022-10-17T12:19:34.362Z,1.20
2022-10-17T12:22:19.848Z,1.10
2022-10-17T12:24:57.542Z,1.00
2022-10-17T12:27:38.119Z,1.40
2022-10-17T12:30:25.996Z,0.80
2022-10-17T12:33:06.487Z,0.90
2022-10-17T12:35:38.158Z,0.90
2022-10-17T12:38:24.938Z,1.00
2022-10-17T12:41:01.323Z,0.90
2022-10-17T12:43:48.567Z,1.10
2022-10-17T12:46:55.460Z,0.90
2022-10-17T12:49:54.372Z,0.90
2022-10-17T12:52:53.847Z,0.80
2022-10-17T12:55:25.795Z,0.80
2022-10-17T12:57:59.596Z,0.80
2022-10-17T13:00:35.951Z,0.90
2022-10-17T13:03:13.070Z,0.90
2022-10-17T13:05:45.855Z,1.10
2022-10-17T13:08:19.510Z,0.90
2022-10-17T13:10:52.432Z,0.70
2022-10-17T13:13:25.475Z,1.10
2022-10-17T13:15:55.383Z,1.20
2022-10-17T13:18:27.223Z,0.90
2022-10-17T13:20:58.605Z,1.00
2022-10-17T13:23:31.596Z,0.80
2022-10-17T13:26:17.169Z,0.90
2022-10-17T13:28:46.119Z,1.10
2022-10-17T13:31:30.776Z,0.90
2022-10-17T13:34:01.836Z,0.90
2022-10-17T13:36:32.774Z,1.20
2022-10-17T13:39:07.627Z,0.90
2022-10-17T13:41:38.238Z,1.10
2022-10-17T13:44:13.908Z,1.10
2022-10-17T13:46:43.009Z,1.00
2022-10-17T13:49:25.740Z,1.10
2022-10-17T13:51:58.296Z,0.90
2022-10-17T13:54:37.430Z,1.00
2022-10-17T13:57:16.643Z,0.90
2022-10-17T14:02:19.253Z,0.80
2022-10-17T14:05:15.658Z,0.90
2022-10-17T14:08:09.547Z,0.80
2022-10-17T14:10:32.715Z,0.80
2022-10-17T14:13:03.752Z,0.90
2022-10-17T14:15:34.707Z,1.00
2022-10-17T14:18:07.777Z,1.30
2022-10-17T14:26:11.924Z,1.10
2022-10-17T14:28:41.843Z,1.30
2022-10-17T14:31:22.076Z,1.20
2022-10-17T14:33:51.994Z,0.90
2022-10-17T14:36:29.426Z,1.10
2022-10-17T14:38:58.796Z,1.00
2022-10-17T14:41:42.557Z,1.00
2022-10-17T14:44:20.709Z,1.10
2022-10-17T14:46:52.785Z,0.80
2022-10-17T14:49:27.494Z,1.00
2022-10-17T14:52:30.676Z,1.20
2022-10-17T14:55:12.551Z,1.00
2022-10-17T14:57:45.483Z,1.20
2022-10-17T15:00:18.675Z,1.20
2022-10-17T15:02:48.286Z,1.40
2022-10-17T15:05:17.180Z,1.50
2022-10-17T15:07:45.901Z,1.00
2022-10-17T15:10:34.977Z,1.10
2022-10-17T15:13:26.625Z,1.30
2022-10-17T15:15:53.250Z,1.40
2022-10-17T15:18:21.785Z,0.90
2022-10-17T15:20:56.272Z,1.20
2022-10-17T15:23:35.185Z,1.10
2022-10-17T15:26:03.702Z,1.20
2022-10-17T15:28:32.325Z,1.30
2022-10-17T15:31:01.183Z,1.30
2022-10-17T15:33:29.654Z,1.00
2022-10-17T15:38:31.600Z,1.40
2022-10-17T15:41:00.128Z,1.50
2022-10-17T15:43:28.683Z,1.00
2022-10-17T15:45:57.189Z,1.30
2022-10-17T15:48:31.046Z,1.10
2022-10-17T15:51:00.276Z,1.80
2022-10-17T15:53:28.771Z,1.30
2022-10-17T15:55:58.063Z,1.20
2022-10-17T15:58:28.769Z,1.40
2022-10-17T16:00:57.287Z,3.90
2022-10-17T16:03:27.681Z,2.50
2022-10-17T16:05:56.207Z,4.80
2022-10-17T16:08:25.392Z,8.50
2022-10-17T16:10:54.042Z,2.50
2022-10-17T16:13:24.864Z,2.60
2022-10-17T16:15:53.438Z,2.00
2022-10-17T16:18:21.999Z,1.70
2022-10-17T16:20:50.698Z,1.30
2022-10-17T16:23:19.254Z,2.30
2022-10-17T16:25:47.880Z,2.60
2022-10-17T16:28:16.384Z,3.10
2022-10-17T16:30:45.655Z,2.00
2022-10-17T16:33:14.471Z,2.40
2022-10-17T16:35:45.138Z,2.80
2022-10-17T16:38:13.649Z,2.90
2022-10-17T16:40:42.362Z,2.50
2022-10-17T16:43:12.604Z,2.00
2022-10-17T16:48:10.479Z,2.10
2022-10-17T16:50:40.822Z,3.40
2022-10-17T16:53:09.962Z,3.20
2022-10-17T16:55:38.741Z,1.80
2022-10-17T16:58:09.798Z,1.80
2022-10-17T17:00:39.791Z,5.70
2022-10-17T17:03:08.555Z,3.70
2022-10-17T17:05:37.070Z,3.50
2022-10-17T17:08:09.090Z,2.70
2022-10-17T17:10:45.911Z,2.40
2022-10-17T17:13:14.432Z,2.80
2022-10-17T17:15:43.040Z,2.30
2022-10-17T17:18:13.602Z,2.60
2022-10-17T17:20:42.418Z,2.60
2022-10-17T17:23:15.112Z,2.50
2022-10-17T17:25:44.971Z,3.40
2022-10-17T17:28:13.647Z,5.60
2022-10-17T17:30:42.159Z,6.70
2022-10-17T17:33:11.267Z,6.60
2022-10-17T17:35:40.572Z,9.10
2022-10-17T17:38:09.156Z,8.80
2022-10-17T17:40:48.053Z,8.60
2022-10-17T17:43:19.456Z,7.50
2022-10-17T17:45:48.518Z,6.50
2022-10-17T17:48:17.371Z,6.60
2022-10-17T17:50:46.511Z,5.80
2022-10-17T17:53:16.878Z,4.30
2022-10-17T17:58:14.003Z,4.00
2022-10-17T18:00:42.878Z,3.30
2022-10-17T18:03:11.673Z,2.80
2022-10-17T18:05:41.695Z,3.00
2022-10-17T18:08:10.230Z,3.20
2022-10-17T18:10:38.771Z,3.50
2022-10-17T18:13:07.366Z,5.00
2022-10-17T18:15:35.878Z,5.50
2022-10-17T18:18:04.429Z,5.20
2022-10-17T18:20:32.944Z,5.30
2022-10-17T18:23:04.153Z,5.50
2022-10-17T18:25:33.127Z,6.10
2022-10-17T18:28:01.830Z,6.40
2022-10-17T18:30:33.746Z,7.30
2022-10-17T18:33:03.247Z,5.20
2022-10-17T18:35:36.849Z,5.00
2022-10-17T18:38:05.440Z,5.90
2022-10-17T18:40:34.158Z,5.40
2022-10-17T18:43:02.786Z,6.70
2022-10-17T18:45:31.467Z,9.40
2022-10-17T18:48:00.088Z,9.60
2022-10-17T18:50:28.606Z,10.20
2022-10-17T18:52:57.545Z,9.30
2022-10-17T18:55:26.328Z,8.30
2022-10-17T18:57:54.950Z,7.60
2022-10-17T19:00:23.808Z,6.60
2022-10-17T19:02:52.650Z,6.70
2022-10-17T19:05:21.301Z,6.90
2022-10-17T19:07:49.864Z,6.70
2022-10-17T19:10:18.546Z,8.40
2022-10-17T19:12:47.249Z,8.30
2022-10-17T19:15:16.223Z,7.40
2022-10-17T19:17:44.924Z,7.10
2022-10-17T19:20:13.657Z,7.20
2022-10-17T19:22:42.288Z,7.00
2022-10-17T19:25:11.387Z,6.40
2022-10-17T19:27:39.928Z,6.60
2022-10-17T19:30:12.117Z,5.40
2022-10-17T19:32:40.810Z,5.60
2022-10-17T19:35:11.369Z,5.00
2022-10-17T19:37:39.923Z,5.90
2022-10-17T19:40:11.242Z,3.90
2022-10-17T19:42:39.914Z,3.50
2022-10-17T19:45:10.598Z,4.60
2022-10-17T19:47:39.495Z,3.60
2022-10-17T19:50:11.594Z,6.50
2022-10-17T19:52:40.360Z,4.50
2022-10-17T19:55:09.637Z,4.10
2022-10-17T19:57:38.346Z,3.70
2022-10-17T20:00:08.924Z,3.80
2022-10-17T20:02:39.994Z,3.80
2022-10-17T20:05:21.605Z,4.30
2022-10-17T20:07:52.410Z,4.30
2022-10-17T20:10:21.471Z,3.30
2022-10-17T20:12:50.313Z,3.10
2022-10-17T20:15:19.247Z,3.20
2022-10-17T20:17:48.322Z,2.70
2022-10-17T20:20:17.652Z,3.50
2022-10-17T20:22:46.418Z,3.50
2022-10-17T20:25:15.047Z,8.90
2022-10-17T20:27:43.651Z,7.40
2022-10-17T20:30:12.810Z,3.50
2022-10-17T20:32:41.461Z,3.80
2022-10-17T20:35:10.516Z,4.70
2022-10-17T20:37:42.382Z,4.30
2022-10-17T20:43:01.228Z,4.30
2022-10-17T20:45:43.883Z,3.20
2022-10-17T20:48:19.226Z,4.20
2022-10-17T20:50:48.797Z,3.40
2022-10-17T20:53:36.001Z,3.00
2022-10-17T20:56:07.453Z,4.20
2022-10-17T20:58:36.340Z,6.30
2022-10-17T21:01:09.447Z,5.50
2022-10-17T21:03:42.347Z,5.40
2022-10-17T21:06:15.299Z,5.40
2022-10-17T21:08:44.431Z,6.20
2022-10-17T21:11:15.240Z,5.60
2022-10-17T21:13:44.185Z,6.30
2022-10-17T21:16:15.021Z,6.70
2022-10-17T21:18:44.377Z,5.30
2022-10-17T21:21:15.412Z,5.00
2022-10-17T21:23:45.432Z,5.10
2022-10-17T21:26:14.937Z,4.30
2022-10-17T21:28:45.095Z,4.00
2022-10-17T21:31:16.162Z,4.00
2022-10-17T21:33:46.660Z,5.10
2022-10-17T21:36:16.263Z,7.00
2022-10-17T21:38:46.300Z,7.50
2022-10-17T21:41:18.888Z,7.20
2022-10-17T21:43:47.820Z,7.20
2022-10-17T21:46:18.475Z,5.50
2022-10-17T21:48:48.116Z,6.00
2022-10-17T21:51:19.772Z,6.90
2022-10-17T21:53:48.858Z,6.20
2022-10-17T21:56:20.231Z,6.30
2022-10-17T21:58:50.054Z,5.50
2022-10-17T22:01:20.708Z,4.60
2022-10-17T22:03:50.790Z,4.50
2022-10-17T22:09:13.826Z,4.40
2022-10-17T22:11:44.762Z,5.00
2022-10-17T22:14:15.913Z,4.80
2022-10-17T22:16:45.783Z,5.20
2022-10-17T22:19:16.582Z,4.70
2022-10-17T22:21:45.855Z,9.40
2022-10-17T22:24:16.747Z,11.60
2022-10-17T22:26:46.843Z,11.00
2022-10-17T22:29:15.941Z,10.80
2022-10-17T22:31:44.745Z,10.20
2022-10-17T22:34:15.199Z,12.40
2022-10-17T22:39:18.851Z,14.70
2022-10-17T22:41:48.197Z,12.90
2022-10-17T22:47:54.362Z,9.40
2022-10-17T22:50:23.973Z,9.60
2022-10-17T22:52:52.502Z,9.10
2022-10-17T22:55:21.097Z,9.30
2022-10-17T22:57:49.787Z,8.00
2022-10-17T23:00:18.720Z,8.30
2022-10-17T23:02:47.367Z,8.00
2022-10-17T23:05:15.999Z,8.00
2022-10-17T23:07:44.748Z,7.70
2022-10-17T23:10:15.571Z,7.00
2022-10-17T23:12:48.004Z,7.50
2022-10-17T23:15:17.778Z,7.20
2022-10-17T23:17:46.566Z,6.10
2022-10-17T23:20:15.827Z,5.20
2022-10-17T23:22:46.945Z,5.10
2022-10-17T23:25:17.051Z,5.90
2022-10-17T23:27:45.801Z,5.30
2022-10-17T23:30:14.741Z,4.90
2022-10-17T23:32:43.503Z,5.40
2022-10-17T23:35:13.591Z,5.10
2022-10-17T23:37:43.138Z,5.70
2022-10-17T23:40:14.233Z,5.10
2022-10-17T23:42:43.083Z,5.30
2022-10-17T23:45:13.174Z,5.80
2022-10-17T23:47:42.351Z,5.30
2022-10-17T23:50:11.278Z,5.10
2022-10-17T23:52:39.976Z,4.70
2022-10-17T23:55:10.688Z,4.40
2022-10-17T23:57:39.387Z,4.50
